sensor_id;sensor_type;location;lat;lon;timestamp;P1;durP1;ratioP1;P2;durP2;ratioP2
25609;SDS011;13479;49.044;8.716;2023-02-28T05:00:39;7.57;;;3.57;;
25609;SDS011;13479;49.044;8.716;2023-02-28T05:03:04;5.27;;;2.87;;
25609;SDS011;13479;49.044;8.716;2023-02-28T05:05:29;6.73;;;3.20;;
25609;SDS011;13479;49.044;8.716;2023-02-28T05:07:55;8.57;;;3.43;;
25609;SDS011;13479;49.044;8.716;2023-02-28T05:10:21;6.47;;;3.53;;
25609;SDS011;13479;49.044;8.716;2023-02-28T05:12:47;8.77;;;3.80;;
25609;SDS011;13479;49.044;8.716;2023-02-28T05:17:38;7.60;;;3.00;;
25609;SDS011;13479;49.044;8.716;2023-02-28T05:20:04;8.63;;;3.47;;
25609;SDS011;13479;49.044;8.716;2023-02-28T05:22:29;4.80;;;2.33;;
25609;SDS011;13479;49.044;8.716;2023-02-28T05:24:55;7.17;;;3.40;;
25609;SDS011;13479;49.044;8.716;2023-02-28T05:27:20;5.57;;;2.60;;
25609;SDS011;13479;49.044;8.716;2023-02-28T05:29:45;4.30;;;2.20;;
25609;SDS011;13479;49.044;8.716;2023-02-28T05:32:11;6.27;;;3.03;;
25609;SDS011;13479;49.044;8.716;2023-02-28T05:34:37;4.27;;;2.40;;
25609;SDS011;13479;49.044;8.716;2023-02-28T05:37:04;4.70;;;2.30;;
25609;SDS011;13479;49.044;8.716;2023-02-28T05:39:30;7.43;;;3.40;;
25609;SDS011;13479;49.044;8.716;2023-02-28T05:41:55;6.53;;;2.80;;
25609;SDS011;13479;49.044;8.716;2023-02-28T05:44:20;8.73;;;4.03;;
25609;SDS011;13479;49.044;8.716;2023-02-28T05:46:46;7.83;;;3.17;;
25609;SDS011;13479;49.044;8.716;2023-02-28T05:49:11;7.03;;;3.93;;
25609;SDS011;13479;49.044;8.716;2023-02-28T05:51:36;5.97;;;2.97;;
25609;SDS011;13479;49.044;8.716;2023-02-28T05:54:04;4.80;;;2.17;;
25609;SDS011;13479;49.044;8.716;2023-02-28T05:56:30;3.93;;;2.37;;
25609;SDS011;13479;49.044;8.716;2023-02-28T05:58:56;11.10;;;3.17;;
25609;SDS011;13479;49.044;8.716;2023-02-28T06:01:30;5.33;;;3.47;;
25609;SDS011;13479;49.044;8.716;2023-02-28T06:03:58;5.87;;;3.47;;
25609;SDS011;13479;49.044;8.716;2023-02-28T06:06:24;8.50;;;3.77;;
25609;SDS011;13479;49.044;8.716;2023-02-28T06:08:50;8.70;;;3.67;;
25609;SDS011;13479;49.044;8.716;2023-02-28T06:11:15;4.70;;;2.57;;
25609;SDS011;13479;49.044;8.716;2023-02-28T06:13:40;5.27;;;3.17;;
25609;SDS011;13479;49.044;8.716;2023-02-28T06:16:07;5.37;;;2.77;;
25609;SDS011;13479;49.044;8.716;2023-02-28T06:18:34;4.60;;;2.30;;
25609;SDS011;13479;49.044;8.716;2023-02-28T06:20:59;4.97;;;2.50;;
25609;SDS011;13479;49.044;8.716;2023-02-28T06:23:24;6.10;;;3.13;;
25609;SDS011;13479;49.044;8.716;2023-02-28T06:25:50;6.90;;;3.53;;
25609;SDS011;13479;49.044;8.716;2023-02-28T06:28:15;11.00;;;3.50;;
25609;SDS011;13479;49.044;8.716;2023-02-28T06:30:41;6.17;;;3.67;;
25609;SDS011;13479;49.044;8.716;2023-02-28T06:33:06;4.77;;;2.73;;
25609;SDS011;13479;49.044;8.716;2023-02-28T06:35:31;8.93;;;4.00;;
25609;SDS011;13479;49.044;8.716;2023-02-28T06:37:56;8.13;;;3.60;;
25609;SDS011;13479;49.044;8.716;2023-02-28T06:40:22;8.13;;;2.87;;
25609;SDS011;13479;49.044;8.716;2023-02-28T06:42:47;5.97;;;3.30;;
25609;SDS011;13479;49.044;8.716;2023-02-28T06:45:12;6.83;;;3.80;;
25609;SDS011;13479;49.044;8.716;2023-02-28T06:47:38;6.77;;;3.23;;
25609;SDS011;13479;49.044;8.716;2023-02-28T06:50:05;8.53;;;3.50;;
25609;SDS011;13479;49.044;8.716;2023-02-28T06:52:32;6.30;;;2.53;;
25609;SDS011;13479;49.044;8.716;2023-02-28T06:54:57;6.43;;;3.57;;
25609;SDS011;13479;49.044;8.716;2023-02-28T06:57:29;8.13;;;3.80;;
25609;SDS011;13479;49.044;8.716;2023-02-28T06:59:56;8.50;;;3.27;;
25609;SDS011;13479;49.044;8.716;2023-02-28T07:02:23;6.37;;;2.37;;
25609;SDS011;13479;49.044;8.716;2023-02-28T07:04:48;8.60;;;3.77;;
25609;SDS011;13479;49.044;8.716;2023-02-28T07:07:13;5.03;;;2.87;;
25609;SDS011;13479;49.044;8.716;2023-02-28T07:09:39;9.97;;;3.97;;
25609;SDS011;13479;49.044;8.716;2023-02-28T07:12:04;8.60;;;4.07;;
25609;SDS011;13479;49.044;8.716;2023-02-28T07:14:29;8.93;;;3.20;;
25609;SDS011;13479;49.044;8.716;2023-02-28T07:16:55;8.87;;;4.53;;
25609;SDS011;13479;49.044;8.716;2023-02-28T07:19:20;3.73;;;1.90;;
25609;SDS011;13479;49.044;8.716;2023-02-28T07:21:45;7.20;;;3.47;;
25609;SDS011;13479;49.044;8.716;2023-02-28T07:24:11;4.60;;;2.57;;
25609;SDS011;13479;49.044;8.716;2023-02-28T07:26:36;9.27;;;3.63;;
25609;SDS011;13479;49.044;8.716;2023-02-28T07:29:01;4.33;;;2.53;;
25609;SDS011;13479;49.044;8.716;2023-02-28T07:31:27;6.73;;;2.93;;
25609;SDS011;13479;49.044;8.716;2023-02-28T07:33:52;6.87;;;3.30;;
25609;SDS011;13479;49.044;8.716;2023-02-28T07:36:18;7.83;;;3.00;;
25609;SDS011;13479;49.044;8.716;2023-02-28T07:38:45;5.10;;;2.70;;
25609;SDS011;13479;49.044;8.716;2023-02-28T07:41:13;6.63;;;3.37;;
25609;SDS011;13479;49.044;8.716;2023-02-28T07:43:39;4.87;;;2.77;;
25609;SDS011;13479;49.044;8.716;2023-02-28T07:46:05;10.97;;;4.27;;
25609;SDS011;13479;49.044;8.716;2023-02-28T07:48:35;6.97;;;3.60;;
25609;SDS011;13479;49.044;8.716;2023-02-28T07:51:00;7.47;;;3.23;;
25609;SDS011;13479;49.044;8.716;2023-02-28T07:53:26;5.93;;;2.60;;
25609;SDS011;13479;49.044;8.716;2023-02-28T07:55:56;7.73;;;3.80;;
25609;SDS011;13479;49.044;8.716;2023-02-28T07:58:22;4.87;;;2.90;;
25609;SDS011;13479;49.044;8.716;2023-02-28T08:00:48;11.03;;;4.50;;
25609;SDS011;13479;49.044;8.716;2023-02-28T08:03:17;6.47;;;3.50;;
25609;SDS011;13479;49.044;8.716;2023-02-28T08:05:44;7.17;;;4.00;;
25609;SDS011;13479;49.044;8.716;2023-02-28T08:08:09;6.07;;;2.83;;
25609;SDS011;13479;49.044;8.716;2023-02-28T08:10:35;6.23;;;2.57;;
25609;SDS011;13479;49.044;8.716;2023-02-28T08:13:00;8.17;;;4.27;;
25609;SDS011;13479;49.044;8.716;2023-02-28T08:15:25;7.50;;;2.80;;
25609;SDS011;13479;49.044;8.716;2023-02-28T08:17:51;7.13;;;2.97;;
25609;SDS011;13479;49.044;8.716;2023-02-28T08:20:16;8.40;;;4.13;;
25609;SDS011;13479;49.044;8.716;2023-02-28T08:22:41;7.17;;;3.87;;
25609;SDS011;13479;49.044;8.716;2023-02-28T08:25:07;5.83;;;2.60;;
25609;SDS011;13479;49.044;8.716;2023-02-28T08:27:33;6.37;;;3.53;;
25609;SDS011;13479;49.044;8.716;2023-02-28T08:29:58;6.53;;;2.60;;
25609;SDS011;13479;49.044;8.716;2023-02-28T08:32:23;8.17;;;4.00;;
25609;SDS011;13479;49.044;8.716;2023-02-28T08:34:49;7.83;;;3.63;;
25609;SDS011;13479;49.044;8.716;2023-02-28T08:37:14;10.60;;;4.53;;
25609;SDS011;13479;49.044;8.716;2023-02-28T08:39:40;6.33;;;3.27;;
25609;SDS011;13479;49.044;8.716;2023-02-28T08:42:05;6.57;;;2.87;;
25609;SDS011;13479;49.044;8.716;2023-02-28T08:44:30;6.73;;;3.70;;
25609;SDS011;13479;49.044;8.716;2023-02-28T08:46:56;7.77;;;3.47;;
25609;SDS011;13479;49.044;8.716;2023-02-28T08:49:21;7.57;;;3.87;;
25609;SDS011;13479;49.044;8.716;2023-02-28T08:51:46;8.00;;;3.30;;
25609;SDS011;13479;49.044;8.716;2023-02-28T08:54:11;9.80;;;4.87;;
25609;SDS011;13479;49.044;8.716;2023-02-28T08:56:37;7.80;;;3.57;;
25609;SDS011;13479;49.044;8.716;2023-02-28T08:59:03;9.00;;;4.40;;
25609;SDS011;13479;49.044;8.716;2023-02-28T09:01:29;6.40;;;3.73;;
25609;SDS011;13479;49.044;8.716;2023-02-28T09:03:56;6.43;;;3.10;;
25609;SDS011;13479;49.044;8.716;2023-02-28T09:06:23;11.57;;;4.77;;
25609;SDS011;13479;49.044;8.716;2023-02-28T09:08:50;8.60;;;4.63;;
25609;SDS011;13479;49.044;8.716;2023-02-28T09:11:16;5.53;;;3.10;;
25609;SDS011;13479;49.044;8.716;2023-02-28T09:13:43;7.00;;;4.10;;
25609;SDS011;13479;49.044;8.716;2023-02-28T09:16:10;7.87;;;4.30;;
25609;SDS011;13479;49.044;8.716;2023-02-28T09:18:37;8.52;;;4.85;;
25609;SDS011;13479;49.044;8.716;2023-02-28T09:21:06;9.63;;;3.35;;
25609;SDS011;13479;49.044;8.716;2023-02-28T09:23:33;10.95;;;4.20;;
25609;SDS011;13479;49.044;8.716;2023-02-28T09:25:59;8.02;;;4.78;;
25609;SDS011;13479;49.044;8.716;2023-02-28T09:28:24;9.63;;;4.55;;
25609;SDS011;13479;49.044;8.716;2023-02-28T09:30:50;6.80;;;3.97;;
25609;SDS011;13479;49.044;8.716;2023-02-28T09:33:18;7.78;;;5.20;;
25609;SDS011;13479;49.044;8.716;2023-02-28T09:35:48;7.40;;;4.28;;
25609;SDS011;13479;49.044;8.716;2023-02-28T09:38:14;9.25;;;4.40;;
25609;SDS011;13479;49.044;8.716;2023-02-28T09:40:56;6.10;;;3.17;;
25609;SDS011;13479;49.044;8.716;2023-02-28T09:43:25;8.02;;;3.85;;
25609;SDS011;13479;49.044;8.716;2023-02-28T09:45:59;6.87;;;3.60;;
25609;SDS011;13479;49.044;8.716;2023-02-28T09:48:32;10.03;;;5.60;;
25609;SDS011;13479;49.044;8.716;2023-02-28T09:53:48;7.00;;;3.17;;
25609;SDS011;13479;49.044;8.716;2023-02-28T09:56:15;6.90;;;3.80;;
25609;SDS011;13479;49.044;8.716;2023-02-28T09:58:53;9.73;;;5.47;;
25609;SDS011;13479;49.044;8.716;2023-02-28T10:04:16;9.90;;;4.13;;
25609;SDS011;13479;49.044;8.716;2023-02-28T10:07:12;11.13;;;5.43;;
25609;SDS011;13479;49.044;8.716;2023-02-28T10:09:45;9.70;;;5.00;;
25609;SDS011;13479;49.044;8.716;2023-02-28T10:12:16;8.13;;;3.60;;
25609;SDS011;13479;49.044;8.716;2023-02-28T10:14:42;10.40;;;5.17;;
25609;SDS011;13479;49.044;8.716;2023-02-28T10:17:12;12.03;;;5.90;;
25609;SDS011;13479;49.044;8.716;2023-02-28T10:20:01;9.03;;;4.10;;
25609;SDS011;13479;49.044;8.716;2023-02-28T10:22:40;7.30;;;3.80;;
25609;SDS011;13479;49.044;8.716;2023-02-28T10:25:21;6.97;;;4.13;;
25609;SDS011;13479;49.044;8.716;2023-02-28T10:27:52;13.63;;;3.97;;
25609;SDS011;13479;49.044;8.716;2023-02-28T10:30:19;9.13;;;4.90;;
25609;SDS011;13479;49.044;8.716;2023-02-28T10:32:49;7.13;;;3.73;;
25609;SDS011;13479;49.044;8.716;2023-02-28T10:35:19;9.20;;;4.23;;
25609;SDS011;13479;49.044;8.716;2023-02-28T10:37:47;7.57;;;3.07;;
25609;SDS011;13479;49.044;8.716;2023-02-28T10:43:01;10.80;;;3.90;;
25609;SDS011;13479;49.044;8.716;2023-02-28T10:45:29;9.80;;;5.33;;
25609;SDS011;13479;49.044;8.716;2023-02-28T10:55:55;6.30;;;3.90;;
25609;SDS011;13479;49.044;8.716;2023-02-28T10:58:31;7.93;;;3.40;;
25609;SDS011;13479;49.044;8.716;2023-02-28T11:01:12;8.57;;;3.37;;
25609;SDS011;13479;49.044;8.716;2023-02-28T11:03:40;6.50;;;3.00;;
25609;SDS011;13479;49.044;8.716;2023-02-28T11:06:06;9.10;;;4.63;;
25609;SDS011;13479;49.044;8.716;2023-02-28T11:08:43;6.77;;;2.90;;
25609;SDS011;13479;49.044;8.716;2023-02-28T11:11:10;6.40;;;3.13;;
25609;SDS011;13479;49.044;8.716;2023-02-28T11:13:36;8.00;;;3.30;;
25609;SDS011;13479;49.044;8.716;2023-02-28T11:16:07;8.67;;;3.43;;
25609;SDS011;13479;49.044;8.716;2023-02-28T11:18:51;7.73;;;4.00;;
25609;SDS011;13479;49.044;8.716;2023-02-28T11:21:25;7.47;;;3.83;;
25609;SDS011;13479;49.044;8.716;2023-02-28T11:23:55;8.67;;;3.47;;
25609;SDS011;13479;49.044;8.716;2023-02-28T11:26:42;6.83;;;3.90;;
25609;SDS011;13479;49.044;8.716;2023-02-28T11:29:11;7.47;;;4.13;;
25609;SDS011;13479;49.044;8.716;2023-02-28T11:31:42;15.50;;;5.70;;
25609;SDS011;13479;49.044;8.716;2023-02-28T11:34:22;12.20;;;4.37;;
25609;SDS011;13479;49.044;8.716;2023-02-28T11:36:50;12.00;;;5.50;;
25609;SDS011;13479;49.044;8.716;2023-02-28T11:39:18;6.33;;;3.60;;
25609;SDS011;13479;49.044;8.716;2023-02-28T11:44:29;6.83;;;3.43;;
25609;SDS011;13479;49.044;8.716;2023-02-28T11:52:39;10.70;;;4.47;;
25609;SDS011;13479;49.044;8.716;2023-02-28T11:58:16;8.57;;;4.03;;
25609;SDS011;13479;49.044;8.716;2023-02-28T12:01:26;8.73;;;5.00;;
25609;SDS011;13479;49.044;8.716;2023-02-28T12:06:57;10.73;;;5.27;;
25609;SDS011;13479;49.044;8.716;2023-02-28T12:12:29;11.50;;;4.37;;
25609;SDS011;13479;49.044;8.716;2023-02-28T12:23:46;13.60;;;5.90;;
25609;SDS011;13479;49.044;8.716;2023-02-28T12:31:56;7.17;;;3.83;;
25609;SDS011;13479;49.044;8.716;2023-02-28T12:34:31;7.40;;;4.03;;
25609;SDS011;13479;49.044;8.716;2023-02-28T12:37:01;10.13;;;5.85;;
25609;SDS011;13479;49.044;8.716;2023-02-28T12:39:34;9.93;;;4.40;;
25609;SDS011;13479;49.044;8.716;2023-02-28T12:42:09;11.03;;;4.53;;
25609;SDS011;13479;49.044;8.716;2023-02-28T12:47:19;10.47;;;4.17;;
25609;SDS011;13479;49.044;8.716;2023-02-28T12:52:10;10.10;;;5.27;;
25609;SDS011;13479;49.044;8.716;2023-02-28T12:54:47;9.50;;;5.00;;
25609;SDS011;13479;49.044;8.716;2023-02-28T12:57:27;9.23;;;4.57;;
25609;SDS011;13479;49.044;8.716;2023-02-28T13:00:03;7.80;;;3.77;;
25609;SDS011;13479;49.044;8.716;2023-02-28T13:02:50;8.53;;;4.17;;
25609;SDS011;13479;49.044;8.716;2023-02-28T13:11:24;10.67;;;5.57;;
25609;SDS011;13479;49.044;8.716;2023-02-28T13:14:02;9.60;;;4.50;;
25609;SDS011;13479;49.044;8.716;2023-02-28T13:16:47;7.77;;;3.33;;
25609;SDS011;13479;49.044;8.716;2023-02-28T13:19:18;11.13;;;5.47;;
25609;SDS011;13479;49.044;8.716;2023-02-28T13:21:46;9.97;;;5.20;;
25609;SDS011;13479;49.044;8.716;2023-02-28T13:24:27;10.43;;;5.87;;
25609;SDS011;13479;49.044;8.716;2023-02-28T13:29:30;9.57;;;5.07;;
25609;SDS011;13479;49.044;8.716;2023-02-28T13:37:33;11.30;;;5.60;;
25609;SDS011;13479;49.044;8.716;2023-02-28T13:40:45;12.80;;;6.23;;
25609;SDS011;13479;49.044;8.716;2023-02-28T13:43:01;12.20;;;4.63;;
25609;SDS011;13479;49.044;8.716;2023-02-28T13:45:27;8.50;;;5.20;;
25609;SDS011;13479;49.044;8.716;2023-02-28T13:48:05;12.63;;;6.83;;
25609;SDS011;13479;49.044;8.716;2023-02-28T13:50:41;10.83;;;5.80;;
25609;SDS011;13479;49.044;8.716;2023-02-28T13:55:57;9.30;;;4.70;;
25609;SDS011;13479;49.044;8.716;2023-02-28T14:07:15;9.17;;;5.20;;
25609;SDS011;13479;49.044;8.716;2023-02-28T14:09:45;9.67;;;5.63;;
25609;SDS011;13479;49.044;8.716;2023-02-28T14:15:26;12.27;;;5.70;;
25609;SDS011;13479;49.044;8.716;2023-02-28T14:17:58;9.43;;;3.67;;
25609;SDS011;13479;49.044;8.716;2023-02-28T14:20:27;6.90;;;4.30;;
25609;SDS011;13479;49.044;8.716;2023-02-28T14:28:17;10.90;;;5.37;;
25609;SDS011;13479;49.044;8.716;2023-02-28T14:33:42;10.93;;;6.63;;
25609;SDS011;13479;49.044;8.716;2023-02-28T14:36:25;10.90;;;6.67;;
25609;SDS011;13479;49.044;8.716;2023-02-28T14:38:55;10.60;;;6.43;;
25609;SDS011;13479;49.044;8.716;2023-02-28T14:44:02;12.20;;;6.27;;
25609;SDS011;13479;49.044;8.716;2023-02-28T14:46:38;12.93;;;7.13;;
25609;SDS011;13479;49.044;8.716;2023-02-28T14:49:05;9.50;;;4.53;;
25609;SDS011;13479;49.044;8.716;2023-02-28T14:51:34;13.60;;;4.87;;
25609;SDS011;13479;49.044;8.716;2023-02-28T14:54:00;11.73;;;6.17;;
25609;SDS011;13479;49.044;8.716;2023-02-28T14:56:35;14.03;;;5.93;;
25609;SDS011;13479;49.044;8.716;2023-02-28T14:59:03;12.03;;;5.13;;
25609;SDS011;13479;49.044;8.716;2023-02-28T15:01:28;13.87;;;6.10;;
25609;SDS011;13479;49.044;8.716;2023-02-28T15:03:58;10.87;;;6.47;;
25609;SDS011;13479;49.044;8.716;2023-02-28T15:06:43;12.80;;;7.67;;
25609;SDS011;13479;49.044;8.716;2023-02-28T15:09:15;10.17;;;4.80;;
25609;SDS011;13479;49.044;8.716;2023-02-28T15:11:44;10.47;;;5.17;;
25609;SDS011;13479;49.044;8.716;2023-02-28T15:14:16;11.60;;;5.63;;
25609;SDS011;13479;49.044;8.716;2023-02-28T15:16:44;21.17;;;7.13;;
25609;SDS011;13479;49.044;8.716;2023-02-28T15:19:17;9.87;;;5.57;;
25609;SDS011;13479;49.044;8.716;2023-02-28T15:22:13;13.77;;;7.30;;
25609;SDS011;13479;49.044;8.716;2023-02-28T15:24:44;12.30;;;6.37;;
25609;SDS011;13479;49.044;8.716;2023-02-28T15:27:15;11.13;;;5.73;;
25609;SDS011;13479;49.044;8.716;2023-02-28T15:29:46;10.80;;;5.03;;
25609;SDS011;13479;49.044;8.716;2023-02-28T15:32:21;8.57;;;5.07;;
25609;SDS011;13479;49.044;8.716;2023-02-28T15:34:53;10.50;;;5.73;;
25609;SDS011;13479;49.044;8.716;2023-02-28T15:42:36;13.47;;;6.10;;
25609;SDS011;13479;49.044;8.716;2023-02-28T15:45:01;11.57;;;7.17;;
25609;SDS011;13479;49.044;8.716;2023-02-28T15:47:28;14.37;;;7.13;;
25609;SDS011;13479;49.044;8.716;2023-02-28T15:52:29;13.80;;;7.43;;
25609;SDS011;13479;49.044;8.716;2023-02-28T15:55:22;12.23;;;6.70;;
25609;SDS011;13479;49.044;8.716;2023-02-28T15:57:52;15.30;;;8.40;;
25609;SDS011;13479;49.044;8.716;2023-02-28T16:00:23;9.00;;;4.87;;
25609;SDS011;13479;49.044;8.716;2023-02-28T16:02:50;14.30;;;7.10;;
25609;SDS011;13479;49.044;8.716;2023-02-28T16:05:20;16.00;;;6.87;;
25609;SDS011;13479;49.044;8.716;2023-02-28T16:07:57;13.00;;;7.40;;
25609;SDS011;13479;49.044;8.716;2023-02-28T16:10:25;11.97;;;6.90;;
25609;SDS011;13479;49.044;8.716;2023-02-28T16:12:53;15.33;;;7.37;;
25609;SDS011;13479;49.044;8.716;2023-02-28T16:17:46;13.60;;;6.63;;
25609;SDS011;13479;49.044;8.716;2023-02-28T16:20:13;15.13;;;7.67;;
25609;SDS011;13479;49.044;8.716;2023-02-28T16:22:40;17.43;;;8.10;;
25609;SDS011;13479;49.044;8.716;2023-02-28T16:25:07;14.30;;;7.53;;
25609;SDS011;13479;49.044;8.716;2023-02-28T16:27:37;12.03;;;7.30;;
25609;SDS011;13479;49.044;8.716;2023-02-28T16:30:03;11.20;;;5.80;;
25609;SDS011;13479;49.044;8.716;2023-02-28T16:32:31;15.50;;;8.93;;
25609;SDS011;13479;49.044;8.716;2023-02-28T16:34:59;13.27;;;7.87;;
25609;SDS011;13479;49.044;8.716;2023-02-28T16:37:26;14.70;;;8.13;;
25609;SDS011;13479;49.044;8.716;2023-02-28T16:39:52;17.37;;;8.33;;
25609;SDS011;13479;49.044;8.716;2023-02-28T16:42:25;15.03;;;7.87;;
25609;SDS011;13479;49.044;8.716;2023-02-28T16:44:53;17.70;;;7.63;;
25609;SDS011;13479;49.044;8.716;2023-02-28T16:47:19;15.23;;;7.37;;
25609;SDS011;13479;49.044;8.716;2023-02-28T16:49:45;16.67;;;8.00;;
25609;SDS011;13479;49.044;8.716;2023-02-28T16:52:10;15.20;;;7.40;;
25609;SDS011;13479;49.044;8.716;2023-02-28T16:54:37;16.90;;;7.37;;
25609;SDS011;13479;49.044;8.716;2023-02-28T16:57:02;9.63;;;5.37;;
25609;SDS011;13479;49.044;8.716;2023-02-28T16:59:29;13.93;;;7.90;;
25609;SDS011;13479;49.044;8.716;2023-02-28T17:01:55;12.77;;;7.57;;
25609;SDS011;13479;49.044;8.716;2023-02-28T17:04:22;16.00;;;8.83;;
25609;SDS011;13479;49.044;8.716;2023-02-28T17:06:48;15.50;;;8.47;;
25609;SDS011;13479;49.044;8.716;2023-02-28T17:09:15;15.07;;;7.80;;
25609;SDS011;13479;49.044;8.716;2023-02-28T17:11:42;17.03;;;8.43;;
25609;SDS011;13479;49.044;8.716;2023-02-28T17:14:08;15.30;;;7.70;;
25609;SDS011;13479;49.044;8.716;2023-02-28T17:16:33;17.37;;;8.80;;
25609;SDS011;13479;49.044;8.716;2023-02-28T17:19:02;16.97;;;8.57;;
25609;SDS011;13479;49.044;8.716;2023-02-28T17:21:30;15.47;;;7.43;;
25609;SDS011;13479;49.044;8.716;2023-02-28T17:23:56;14.00;;;8.07;;
25609;SDS011;13479;49.044;8.716;2023-02-28T17:26:22;18.03;;;9.23;;
25609;SDS011;13479;49.044;8.716;2023-02-28T17:28:49;18.47;;;8.80;;
25609;SDS011;13479;49.044;8.716;2023-02-28T17:31:16;19.67;;;9.23;;
25609;SDS011;13479;49.044;8.716;2023-02-28T17:33:41;14.93;;;7.93;;
25609;SDS011;13479;49.044;8.716;2023-02-28T17:36:09;14.50;;;7.80;;
25609;SDS011;13479;49.044;8.716;2023-02-28T17:38:39;15.47;;;8.33;;
25609;SDS011;13479;49.044;8.716;2023-02-28T17:41:04;16.70;;;8.90;;
25609;SDS011;13479;49.044;8.716;2023-02-28T17:43:29;15.33;;;7.97;;
25609;SDS011;13479;49.044;8.716;2023-02-28T17:45:54;16.83;;;8.07;;
25609;SDS011;13479;49.044;8.716;2023-02-28T17:48:20;14.33;;;7.97;;
25609;SDS011;13479;49.044;8.716;2023-02-28T17:50:46;17.30;;;8.60;;
25609;SDS011;13479;49.044;8.716;2023-02-28T17:53:11;14.40;;;7.70;;
25609;SDS011;13479;49.044;8.716;2023-02-28T17:55:36;14.33;;;7.37;;
25609;SDS011;13479;49.044;8.716;2023-02-28T17:58:02;18.10;;;7.43;;
25609;SDS011;13479;49.044;8.716;2023-02-28T18:00:28;13.70;;;8.07;;
25609;SDS011;13479;49.044;8.716;2023-02-28T18:02:54;15.13;;;8.57;;
25609;SDS011;13479;49.044;8.716;2023-02-28T18:05:19;17.03;;;8.60;;
25609;SDS011;13479;49.044;8.716;2023-02-28T18:07:44;16.90;;;8.10;;
25609;SDS011;13479;49.044;8.716;2023-02-28T18:10:17;14.63;;;8.43;;
25609;SDS011;13479;49.044;8.716;2023-02-28T18:12:48;15.10;;;8.07;;
25609;SDS011;13479;49.044;8.716;2023-02-28T18:15:15;13.83;;;7.33;;
25609;SDS011;13479;49.044;8.716;2023-02-28T18:17:41;15.33;;;8.93;;
25609;SDS011;13479;49.044;8.716;2023-02-28T18:20:07;14.40;;;8.20;;
25609;SDS011;13479;49.044;8.716;2023-02-28T18:22:36;15.30;;;9.10;;
25609;SDS011;13479;49.044;8.716;2023-02-28T18:25:03;16.30;;;8.93;;
25609;SDS011;13479;49.044;8.716;2023-02-28T18:27:29;14.63;;;7.37;;
25609;SDS011;13479;49.044;8.716;2023-02-28T18:29:55;16.10;;;8.23;;
25609;SDS011;13479;49.044;8.716;2023-02-28T18:32:20;15.07;;;8.83;;
25609;SDS011;13479;49.044;8.716;2023-02-28T18:34:45;17.10;;;9.27;;
25609;SDS011;13479;49.044;8.716;2023-02-28T18:37:11;15.73;;;8.27;;
25609;SDS011;13479;49.044;8.716;2023-02-28T18:39:36;25.70;;;8.93;;
25609;SDS011;13479;49.044;8.716;2023-02-28T18:42:01;18.83;;;8.17;;
25609;SDS011;13479;49.044;8.716;2023-02-28T18:44:27;18.37;;;8.17;;
25609;SDS011;13479;49.044;8.716;2023-02-28T18:46:52;16.50;;;8.13;;
25609;SDS011;13479;49.044;8.716;2023-02-28T18:49:17;14.07;;;7.10;;
25609;SDS011;13479;49.044;8.716;2023-02-28T18:51:43;20.00;;;9.27;;
25609;SDS011;13479;49.044;8.716;2023-02-28T18:54:10;16.17;;;8.03;;
25609;SDS011;13479;49.044;8.716;2023-02-28T18:56:40;23.33;;;9.87;;
25609;SDS011;13479;49.044;8.716;2023-02-28T18:59:05;17.97;;;7.50;;
25609;SDS011;13479;49.044;8.716;2023-02-28T19:01:31;18.03;;;8.57;;
25609;SDS011;13479;49.044;8.716;2023-02-28T19:03:58;19.07;;;9.20;;
25609;SDS011;13479;49.044;8.716;2023-02-28T19:06:27;28.20;;;9.27;;
25609;SDS011;13479;49.044;8.716;2023-02-28T19:08:57;21.23;;;9.33;;
25609;SDS011;13479;49.044;8.716;2023-02-28T19:11:25;22.80;;;9.60;;
25609;SDS011;13479;49.044;8.716;2023-02-28T19:13:51;17.90;;;8.77;;
25609;SDS011;13479;49.044;8.716;2023-02-28T19:16:18;19.97;;;8.97;;
25609;SDS011;13479;49.044;8.716;2023-02-28T19:18:45;18.03;;;8.87;;
25609;SDS011;13479;49.044;8.716;2023-02-28T19:21:12;19.63;;;8.23;;
25609;SDS011;13479;49.044;8.716;2023-02-28T19:23:38;15.03;;;7.30;;
25609;SDS011;13479;49.044;8.716;2023-02-28T19:26:08;19.67;;;9.13;;
25609;SDS011;13479;49.044;8.716;2023-02-28T19:28:35;19.67;;;7.97;;
25609;SDS011;13479;49.044;8.716;2023-02-28T19:31:00;22.17;;;9.67;;
25609;SDS011;13479;49.044;8.716;2023-02-28T19:33:26;21.17;;;10.30;;
25609;SDS011;13479;49.044;8.716;2023-02-28T19:35:51;19.10;;;9.30;;
25609;SDS011;13479;49.044;8.716;2023-02-28T19:38:16;22.60;;;8.87;;
25609;SDS011;13479;49.044;8.716;2023-02-28T19:40:41;17.13;;;8.37;;
25609;SDS011;13479;49.044;8.716;2023-02-28T19:43:07;17.03;;;8.80;;
25609;SDS011;13479;49.044;8.716;2023-02-28T19:45:34;18.20;;;8.40;;
25609;SDS011;13479;49.044;8.716;2023-02-28T19:48:00;18.03;;;9.50;;
25609;SDS011;13479;49.044;8.716;2023-02-28T19:50:25;17.93;;;8.20;;
25609;SDS011;13479;49.044;8.716;2023-02-28T19:52:51;18.97;;;8.80;;
25609;SDS011;13479;49.044;8.716;2023-02-28T19:55:16;16.90;;;8.20;;
25609;SDS011;13479;49.044;8.716;2023-02-28T19:57:42;20.60;;;8.43;;
25609;SDS011;13479;49.044;8.716;2023-02-28T20:00:08;19.97;;;7.80;;
25609;SDS011;13479;49.044;8.716;2023-02-28T20:02:35;16.70;;;8.97;;
25609;SDS011;13479;49.044;8.716;2023-02-28T20:05:01;15.07;;;8.03;;
25609;SDS011;13479;49.044;8.716;2023-02-28T20:07:26;19.17;;;9.47;;
25609;SDS011;13479;49.044;8.716;2023-02-28T20:09:51;18.93;;;10.43;;
25609;SDS011;13479;49.044;8.716;2023-02-28T20:12:17;20.60;;;9.73;;
25609;SDS011;13479;49.044;8.716;2023-02-28T20:14:46;20.17;;;9.57;;
25609;SDS011;13479;49.044;8.716;2023-02-28T20:17:12;20.10;;;9.00;;
25609;SDS011;13479;49.044;8.716;2023-02-28T20:19:37;17.13;;;8.40;;
25609;SDS011;13479;49.044;8.716;2023-02-28T20:22:02;15.60;;;8.57;;
25609;SDS011;13479;49.044;8.716;2023-02-28T20:24:28;17.50;;;9.23;;
25609;SDS011;13479;49.044;8.716;2023-02-28T20:26:54;16.77;;;9.53;;
25609;SDS011;13479;49.044;8.716;2023-02-28T20:29:21;17.60;;;9.73;;
25609;SDS011;13479;49.044;8.716;2023-02-28T20:31:47;19.03;;;9.80;;
25609;SDS011;13479;49.044;8.716;2023-02-28T20:34:13;18.83;;;9.73;;
25609;SDS011;13479;49.044;8.716;2023-02-28T20:36:38;13.13;;;6.87;;
25609;SDS011;13479;49.044;8.716;2023-02-28T20:39:03;12.37;;;6.73;;
25609;SDS011;13479;49.044;8.716;2023-02-28T20:41:28;16.30;;;7.83;;
25609;SDS011;13479;49.044;8.716;2023-02-28T20:43:55;19.03;;;9.77;;
25609;SDS011;13479;49.044;8.716;2023-02-28T20:46:26;14.73;;;6.80;;
25609;SDS011;13479;49.044;8.716;2023-02-28T20:48:52;15.00;;;8.27;;
25609;SDS011;13479;49.044;8.716;2023-02-28T20:51:18;15.13;;;7.17;;
25609;SDS011;13479;49.044;8.716;2023-02-28T20:53:44;18.93;;;8.07;;
25609;SDS011;13479;49.044;8.716;2023-02-28T20:56:10;19.97;;;8.10;;
25609;SDS011;13479;49.044;8.716;2023-02-28T20:58:40;14.47;;;7.37;;
25609;SDS011;13479;49.044;8.716;2023-02-28T21:03:37;17.50;;;8.77;;
25609;SDS011;13479;49.044;8.716;2023-02-28T21:06:03;14.53;;;7.93;;
25609;SDS011;13479;49.044;8.716;2023-02-28T21:08:29;18.27;;;9.10;;
25609;SDS011;13479;49.044;8.716;2023-02-28T21:10:55;17.47;;;6.97;;
25609;SDS011;13479;49.044;8.716;2023-02-28T21:13:20;19.93;;;8.30;;
25609;SDS011;13479;49.044;8.716;2023-02-28T21:15:46;12.27;;;5.00;;
25609;SDS011;13479;49.044;8.716;2023-02-28T21:18:11;12.93;;;5.60;;
25609;SDS011;13479;49.044;8.716;2023-02-28T21:20:36;12.67;;;6.40;;
25609;SDS011;13479;49.044;8.716;2023-02-28T21:23:02;14.27;;;6.80;;
25609;SDS011;13479;49.044;8.716;2023-02-28T21:25:27;14.13;;;7.53;;
25609;SDS011;13479;49.044;8.716;2023-02-28T21:27:52;13.37;;;6.17;;
25609;SDS011;13479;49.044;8.716;2023-02-28T21:30:21;12.90;;;6.20;;
25609;SDS011;13479;49.044;8.716;2023-02-28T21:32:46;17.33;;;7.70;;
25609;SDS011;13479;49.044;8.716;2023-02-28T21:35:12;14.63;;;6.43;;